createdAt,value
2018-09-20T00:10:32.751Z,20
2018-09-20T00:25:44.648Z,19.6
2018-09-20T00:41:07.556Z,19.3
2018-09-20T00:56:25.728Z,19
2018-09-20T01:11:43.731Z,18.7
2018-09-20T01:26:46.961Z,18.6
2018-09-20T01:42:18.031Z,18.4
2018-09-20T01:57:52.210Z,18.3
2018-09-20T02:13:20.200Z,18.2
2018-09-20T02:28:51.155Z,18.1
2018-09-20T02:44:22.101Z,18
2018-09-20T02:59:44.849Z,18
2018-09-20T03:15:02.335Z,17.9
2018-09-20T03:30:20.109Z,17.8
2018-09-20T03:45:37.305Z,17.7
2018-09-20T04:00:54.021Z,17.5
2018-09-20T04:16:12.929Z,17.4
2018-09-20T04:31:29.158Z,17.3
2018-09-20T04:46:46.473Z,17.3
2018-09-20T05:01:53.578Z,17.3
2018-09-20T05:17:22.045Z,17.4
2018-09-20T05:32:38.174Z,17.4
2018-09-20T05:47:55.707Z,17.6
2018-09-20T06:03:12.946Z,17.8
2018-09-20T06:18:25.742Z,18.1
2018-09-20T06:33:48.061Z,18.4
2018-09-20T06:49:05.923Z,18.9
2018-09-20T07:04:09.843Z,19.5
2018-09-20T07:19:45.239Z,20.1
2018-09-20T07:35:01.194Z,20.7
2018-09-20T07:50:20.227Z,21.5
2018-09-20T08:05:28.514Z,22.3
2018-09-20T08:20:59.548Z,23.1
2018-09-20T08:36:19.090Z,23.9
2018-09-20T08:51:39.720Z,24.8
2018-09-20T09:06:47.524Z,25.6
2018-09-20T09:22:18.082Z,26.6
2018-09-20T09:37:43.840Z,27.4
2018-09-20T09:53:05.973Z,27.8
2018-09-20T10:08:28.812Z,28.3
2018-09-20T10:23:36.370Z,28.7
2018-09-20T10:39:12.278Z,29.2
2018-09-20T10:54:39.803Z,29.4
2018-09-20T11:10:03.738Z,29.5
2018-09-20T11:25:28.256Z,30
2018-09-20T11:40:33.355Z,30
2018-09-20T11:56:10.408Z,30.5
2018-09-20T12:11:42.827Z,30.5
2018-09-20T12:27:07.543Z,30.4
2018-09-20T12:42:31.888Z,30.4
2018-09-20T12:57:57.453Z,30.4
2018-09-20T13:13:08.962Z,30.4
2018-09-20T13:28:45.268Z,30.8
2018-09-20T13:44:09.916Z,31.3
2018-09-20T13:59:34.669Z,31.4
2018-09-20T14:14:59.368Z,31.2
2018-09-20T14:30:10.573Z,31.4
2018-09-20T14:45:46.951Z,31.3
2018-09-20T15:01:13.647Z,31
2018-09-20T15:16:39.552Z,31.2
2018-09-20T15:32:04.312Z,31
2018-09-20T15:47:11.591Z,31
2018-09-20T16:02:47.598Z,31.4
2018-09-20T16:18:19.169Z,31.4
2018-09-20T16:33:43.845Z,30.2
2018-09-20T16:49:08.196Z,29.3
2018-09-20T17:04:31.823Z,28.5
2018-09-20T17:19:44.189Z,27.8
2018-09-20T17:35:17.547Z,27.3
2018-09-20T17:50:40.264Z,26.7
2018-09-20T18:06:01.233Z,26.2
2018-09-20T18:21:22.710Z,25.8
2018-09-20T18:36:32.874Z,25.3
2018-09-20T18:52:04.860Z,25
2018-09-20T19:07:25.521Z,24.6
2018-09-20T19:22:46.015Z,24.2
2018-09-20T19:38:06.353Z,23.8
2018-09-20T19:53:17.158Z,23.5
2018-09-20T20:08:46.858Z,23.1
2018-09-20T20:24:06.523Z,23
2018-09-20T20:39:26.930Z,23
2018-09-20T20:54:46.773Z,22.7
2018-09-20T21:09:58.709Z,22.5
2018-09-20T21:25:26.490Z,22.3
2018-09-20T21:40:46.333Z,21.9
2018-09-20T21:56:05.500Z,21.8
2018-09-20T22:11:24.933Z,21.7
2018-09-20T22:26:38.228Z,21.4
2018-09-20T22:42:02.721Z,21.2
2018-09-20T22:57:21.627Z,21
2018-09-20T23:12:41.628Z,20.7
2018-09-20T23:27:44.615Z,20.6
2018-09-20T23:43:16.556Z,20.4
2018-09-20T23:58:36.706Z,20.2
